sensor_id;sensor_type;location;lat;lon;timestamp;pressure;altitude;pressure_sealevel;temperature;humidity
2685;BME280;1352;48.446;9.156;2022-11-25T00:01:18;95186.38;;;6.25;100.00
2685;BME280;1352;48.446;9.156;2022-11-25T00:03:47;95189.25;;;6.09;100.00
2685;BME280;1352;48.446;9.156;2022-11-25T00:06:16;95183.56;;;6.04;100.00
2685;BME280;1352;48.446;9.156;2022-11-25T00:08:49;95183.25;;;5.85;100.00
2685;BME280;1352;48.446;9.156;2022-11-25T00:11:20;95186.16;;;5.80;100.00
2685;BME280;1352;48.446;9.156;2022-11-25T00:13:49;95188.69;;;5.69;100.00
2685;BME280;1352;48.446;9.156;2022-11-25T00:16:36;95188.13;;;5.53;100.00
2685;BME280;1352;48.446;9.156;2022-11-25T00:19:08;95195.03;;;5.65;100.00
2685;BME280;1352;48.446;9.156;2022-11-25T00:21:36;95200.91;;;5.67;100.00
2685;BME280;1352;48.446;9.156;2022-11-25T00:24:05;95197.81;;;5.62;100.00
2685;BME280;1352;48.446;9.156;2022-11-25T00:26:33;95201.72;;;5.68;100.00
2685;BME280;1352;48.446;9.156;2022-11-25T00:29:06;95196.78;;;5.65;100.00
2685;BME280;1352;48.446;9.156;2022-11-25T00:31:36;95188.69;;;5.69;100.00
2685;BME280;1352;48.446;9.156;2022-11-25T00:34:04;95189.50;;;5.70;100.00
2685;BME280;1352;48.446;9.156;2022-11-25T00:36:33;95177.28;;;5.72;100.00
2685;BME280;1352;48.446;9.156;2022-11-25T00:39:03;95189.28;;;5.73;100.00
2685;BME280;1352;48.446;9.156;2022-11-25T00:41:30;95189.41;;;5.71;100.00
2685;BME280;1352;48.446;9.156;2022-11-25T00:44:19;95188.56;;;5.71;100.00
2685;BME280;1352;48.446;9.156;2022-11-25T00:47:05;95179.66;;;5.75;100.00
2685;BME280;1352;48.446;9.156;2022-11-25T00:49:33;95184.84;;;5.75;100.00
2685;BME280;1352;48.446;9.156;2022-11-25T00:52:00;95191.34;;;5.80;100.00
2685;BME280;1352;48.446;9.156;2022-11-25T00:54:27;95190.19;;;5.84;100.00
2685;BME280;1352;48.446;9.156;2022-11-25T00:56:54;95195.38;;;5.84;100.00
2685;BME280;1352;48.446;9.156;2022-11-25T00:59:23;95190.19;;;5.84;100.00
2685;BME280;1352;48.446;9.156;2022-11-25T01:01:50;95195.22;;;5.86;100.00
2685;BME280;1352;48.446;9.156;2022-11-25T01:04:17;95199.53;;;5.74;100.00
2685;BME280;1352;48.446;9.156;2022-11-25T01:06:44;95198.94;;;5.71;100.00
2685;BME280;1352;48.446;9.156;2022-11-25T01:09:12;95198.19;;;5.45;100.00
2685;BME280;1352;48.446;9.156;2022-11-25T01:11:42;95201.72;;;5.31;100.00
2685;BME280;1352;48.446;9.156;2022-11-25T01:14:49;95208.66;;;5.31;100.00
2685;BME280;1352;48.446;9.156;2022-11-25T01:17:28;95214.19;;;5.13;100.00
2685;BME280;1352;48.446;9.156;2022-11-25T01:20:03;95209.53;;;5.18;100.00
2685;BME280;1352;48.446;9.156;2022-11-25T01:22:48;95196.59;;;5.18;100.00
2685;BME280;1352;48.446;9.156;2022-11-25T01:25:21;95192.75;;;5.24;100.00
2685;BME280;1352;48.446;9.156;2022-11-25T01:27:50;95198.97;;;5.21;100.00
2685;BME280;1352;48.446;9.156;2022-11-25T01:30:19;95195.34;;;5.24;100.00
2685;BME280;1352;48.446;9.156;2022-11-25T01:32:49;95178.16;;;5.23;100.00
2685;BME280;1352;48.446;9.156;2022-11-25T01:35:16;95182.41;;;5.24;100.00
2685;BME280;1352;48.446;9.156;2022-11-25T01:37:43;95178.97;;;5.36;100.00
2685;BME280;1352;48.446;9.156;2022-11-25T01:40:11;95174.50;;;5.38;100.00
2685;BME280;1352;48.446;9.156;2022-11-25T01:42:41;95169.94;;;5.42;100.00
2685;BME280;1352;48.446;9.156;2022-11-25T01:45:38;95174.72;;;5.35;100.00
2685;BME280;1352;48.446;9.156;2022-11-25T01:48:15;95178.75;;;5.39;100.00
2685;BME280;1352;48.446;9.156;2022-11-25T01:50:49;95173.25;;;5.44;100.00
2685;BME280;1352;48.446;9.156;2022-11-25T01:53:33;95160.31;;;5.44;100.00
2685;BME280;1352;48.446;9.156;2022-11-25T01:58:45;95166.44;;;5.43;100.00
2685;BME280;1352;48.446;9.156;2022-11-25T02:01:22;95173.06;;;5.47;100.00
2685;BME280;1352;48.446;9.156;2022-11-25T02:03:50;95162.06;;;5.43;100.00
2685;BME280;1352;48.446;9.156;2022-11-25T02:06:27;95165.50;;;5.44;100.00
2685;BME280;1352;48.446;9.156;2022-11-25T02:08:58;95160.31;;;5.44;100.00
2685;BME280;1352;48.446;9.156;2022-11-25T02:11:34;95155.34;;;5.41;100.00
2685;BME280;1352;48.446;9.156;2022-11-25T02:14:02;95150.56;;;5.47;100.00
2685;BME280;1352;48.446;9.156;2022-11-25T02:16:35;95149.31;;;5.53;100.00
2685;BME280;1352;48.446;9.156;2022-11-25T02:19:10;95140.84;;;5.51;100.00
2685;BME280;1352;48.446;9.156;2022-11-25T02:21:50;95132.41;;;5.60;100.00
2685;BME280;1352;48.446;9.156;2022-11-25T02:27:35;95137.66;;;5.71;100.00
2685;BME280;1352;48.446;9.156;2022-11-25T02:30:08;95135.53;;;5.76;100.00
2685;BME280;1352;48.446;9.156;2022-11-25T02:32:35;95129.00;;;5.83;100.00
2685;BME280;1352;48.446;9.156;2022-11-25T02:35:23;95137.06;;;5.91;100.00
2685;BME280;1352;48.446;9.156;2022-11-25T02:37:51;95133.56;;;6.04;100.00
2685;BME280;1352;48.446;9.156;2022-11-25T02:40:21;95130.41;;;6.11;100.00
2685;BME280;1352;48.446;9.156;2022-11-25T02:42:50;95141.13;;;6.18;100.00
2685;BME280;1352;48.446;9.156;2022-11-25T02:45:22;95135.50;;;6.24;100.00
2685;BME280;1352;48.446;9.156;2022-11-25T02:47:52;95138.91;;;6.24;100.00
2685;BME280;1352;48.446;9.156;2022-11-25T02:50:19;95133.28;;;6.30;100.00
2685;BME280;1352;48.446;9.156;2022-11-25T02:52:46;95129.22;;;6.15;100.00
2685;BME280;1352;48.446;9.156;2022-11-25T02:55:13;95137.44;;;5.98;100.00
2685;BME280;1352;48.446;9.156;2022-11-25T02:57:41;95136.16;;;5.80;100.00
2685;BME280;1352;48.446;9.156;2022-11-25T03:00:17;95140.56;;;5.67;100.00
2685;BME280;1352;48.446;9.156;2022-11-25T03:02:50;95144.31;;;5.63;100.00
2685;BME280;1352;48.446;9.156;2022-11-25T03:05:24;95140.84;;;5.51;100.00
2685;BME280;1352;48.446;9.156;2022-11-25T03:07:54;95142.59;;;5.50;100.00
2685;BME280;1352;48.446;9.156;2022-11-25T03:10:22;95144.72;;;5.33;100.00
2685;BME280;1352;48.446;9.156;2022-11-25T03:12:49;95151.63;;;5.08;100.00
2685;BME280;1352;48.446;9.156;2022-11-25T03:15:22;95151.34;;;4.88;100.00
2685;BME280;1352;48.446;9.156;2022-11-25T03:17:53;95153.34;;;4.71;100.00
2685;BME280;1352;48.446;9.156;2022-11-25T03:20:23;95150.22;;;4.54;100.00
2685;BME280;1352;48.446;9.156;2022-11-25T03:22:54;95160.56;;;4.41;100.00
2685;BME280;1352;48.446;9.156;2022-11-25T03:25:24;95151.97;;;4.53;100.00
2685;BME280;1352;48.446;9.156;2022-11-25T03:27:52;95153.03;;;4.51;100.00
2685;BME280;1352;48.446;9.156;2022-11-25T03:30:23;95156.84;;;4.45;100.00
2685;BME280;1352;48.446;9.156;2022-11-25T03:32:53;95156.63;;;4.35;100.00
2685;BME280;1352;48.446;9.156;2022-11-25T03:35:21;95154.16;;;4.21;100.00
2685;BME280;1352;48.446;9.156;2022-11-25T03:37:52;95148.84;;;4.10;100.00
2685;BME280;1352;48.446;9.156;2022-11-25T03:40:25;95133.72;;;4.31;100.00
2685;BME280;1352;48.446;9.156;2022-11-25T03:42:55;95126.06;;;4.29;100.00
2685;BME280;1352;48.446;9.156;2022-11-25T03:45:27;95135.66;;;4.27;100.00
2685;BME280;1352;48.446;9.156;2022-11-25T03:47:57;95141.03;;;4.24;100.00
2685;BME280;1352;48.446;9.156;2022-11-25T03:50:24;95125.84;;;4.20;100.00
2685;BME280;1352;48.446;9.156;2022-11-25T03:52:55;95141.25;;;4.21;100.00
2685;BME280;1352;48.446;9.156;2022-11-25T03:55:22;95140.31;;;4.22;100.00
2685;BME280;1352;48.446;9.156;2022-11-25T03:57:51;95142.03;;;4.09;100.00
2685;BME280;1352;48.446;9.156;2022-11-25T04:00:21;95146.78;;;4.02;100.00
2685;BME280;1352;48.446;9.156;2022-11-25T04:02:49;95143.56;;;3.99;100.00
2685;BME280;1352;48.446;9.156;2022-11-25T04:05:20;95143.72;;;3.70;100.00
2685;BME280;1352;48.446;9.156;2022-11-25T04:07:48;95144.88;;;3.79;100.00
2685;BME280;1352;48.446;9.156;2022-11-25T04:10:16;95155.69;;;3.71;100.00
2685;BME280;1352;48.446;9.156;2022-11-25T04:12:44;95160.31;;;3.66;100.00
2685;BME280;1352;48.446;9.156;2022-11-25T04:15:13;95160.78;;;3.86;100.00
2685;BME280;1352;48.446;9.156;2022-11-25T04:17:41;95158.31;;;3.97;100.00
2685;BME280;1352;48.446;9.156;2022-11-25T04:20:11;95164.84;;;4.02;100.00
2685;BME280;1352;48.446;9.156;2022-11-25T04:22:38;95153.00;;;4.13;100.00
2685;BME280;1352;48.446;9.156;2022-11-25T04:25:07;95156.81;;;4.20;100.00
2685;BME280;1352;48.446;9.156;2022-11-25T04:27:37;95148.38;;;4.30;100.00
2685;BME280;1352;48.446;9.156;2022-11-25T04:30:06;95148.19;;;4.33;100.00
2685;BME280;1352;48.446;9.156;2022-11-25T04:32:38;95138.34;;;4.38;100.00
2685;BME280;1352;48.446;9.156;2022-11-25T04:35:24;95142.69;;;4.38;100.00
2685;BME280;1352;48.446;9.156;2022-11-25T04:37:58;95143.22;;;4.43;100.00
2685;BME280;1352;48.446;9.156;2022-11-25T04:40:29;95145.28;;;4.51;100.00
2685;BME280;1352;48.446;9.156;2022-11-25T04:43:02;95142.28;;;4.57;100.00
2685;BME280;1352;48.446;9.156;2022-11-25T04:45:48;95134.44;;;4.58;100.00
2685;BME280;1352;48.446;9.156;2022-11-25T04:48:22;95123.75;;;4.63;100.00
2685;BME280;1352;48.446;9.156;2022-11-25T04:50:55;95126.47;;;4.61;100.00
2685;BME280;1352;48.446;9.156;2022-11-25T04:53:25;95127.19;;;4.63;100.00
2685;BME280;1352;48.446;9.156;2022-11-25T04:55:53;95131.84;;;4.71;100.00
2685;BME280;1352;48.446;9.156;2022-11-25T04:58:20;95136.19;;;4.58;100.00
2685;BME280;1352;48.446;9.156;2022-11-25T05:01:04;95142.56;;;4.65;100.00
2685;BME280;1352;48.446;9.156;2022-11-25T05:03:39;95140.63;;;4.68;100.00
2685;BME280;1352;48.446;9.156;2022-11-25T05:06:11;95145.59;;;4.71;100.00
2685;BME280;1352;48.446;9.156;2022-11-25T05:08:39;95139.78;;;4.68;100.00
2685;BME280;1352;48.446;9.156;2022-11-25T05:11:10;95137.31;;;4.79;100.00
2685;BME280;1352;48.446;9.156;2022-11-25T05:13:40;95136.59;;;4.77;100.00
2685;BME280;1352;48.446;9.156;2022-11-25T05:19:02;95134.28;;;4.72;100.00
2685;BME280;1352;48.446;9.156;2022-11-25T05:21:33;95128.00;;;4.76;100.00
2685;BME280;1352;48.446;9.156;2022-11-25T05:24:01;95135.31;;;4.82;100.00
2685;BME280;1352;48.446;9.156;2022-11-25T05:26:38;95131.06;;;4.81;100.00
2685;BME280;1352;48.446;9.156;2022-11-25T05:29:12;95131.50;;;4.88;100.00
2685;BME280;1352;48.446;9.156;2022-11-25T05:31:39;95135.75;;;4.89;100.00
2685;BME280;1352;48.446;9.156;2022-11-25T05:34:19;95137.59;;;4.87;100.00
2685;BME280;1352;48.446;9.156;2022-11-25T05:36:55;95140.47;;;4.95;100.00
2685;BME280;1352;48.446;9.156;2022-11-25T05:39:25;95142.63;;;5.01;100.00
2685;BME280;1352;48.446;9.156;2022-11-25T05:42:00;95136.31;;;5.05;100.00
2685;BME280;1352;48.446;9.156;2022-11-25T05:44:28;95144.47;;;5.12;100.00
2685;BME280;1352;48.446;9.156;2022-11-25T05:46:55;95152.03;;;5.15;100.00
2685;BME280;1352;48.446;9.156;2022-11-25T05:49:27;95150.16;;;5.17;100.00
2685;BME280;1352;48.446;9.156;2022-11-25T05:51:59;95141.78;;;5.13;100.00
2685;BME280;1352;48.446;9.156;2022-11-25T05:54:27;95144.06;;;5.18;100.00
2685;BME280;1352;48.446;9.156;2022-11-25T05:56:57;95148.31;;;5.19;100.00
2685;BME280;1352;48.446;9.156;2022-11-25T05:59:24;95149.94;;;5.20;100.00
2685;BME280;1352;48.446;9.156;2022-11-25T06:01:53;95153.16;;;5.11;100.00
2685;BME280;1352;48.446;9.156;2022-11-25T06:04:21;95147.47;;;5.18;100.00
2685;BME280;1352;48.446;9.156;2022-11-25T06:06:51;95153.84;;;5.26;100.00
2685;BME280;1352;48.446;9.156;2022-11-25T06:09:20;95160.72;;;5.14;100.00
2685;BME280;1352;48.446;9.156;2022-11-25T06:11:47;95165.25;;;5.10;100.00
2685;BME280;1352;48.446;9.156;2022-11-25T06:14:17;95170.88;;;4.92;100.00
2685;BME280;1352;48.446;9.156;2022-11-25T06:16:45;95182.13;;;5.03;100.00
2685;BME280;1352;48.446;9.156;2022-11-25T06:19:20;95177.28;;;4.99;100.00
2685;BME280;1352;48.446;9.156;2022-11-25T06:21:47;95191.47;;;4.80;100.00
2685;BME280;1352;48.446;9.156;2022-11-25T06:24:17;95196.00;;;4.77;100.00
2685;BME280;1352;48.446;9.156;2022-11-25T06:26:46;95204.59;;;4.90;100.00
2685;BME280;1352;48.446;9.156;2022-11-25T06:29:17;95214.22;;;4.88;100.00
2685;BME280;1352;48.446;9.156;2022-11-25T06:31:48;95218.34;;;4.91;100.00
2685;BME280;1352;48.446;9.156;2022-11-25T06:34:18;95221.13;;;4.88;100.00
2685;BME280;1352;48.446;9.156;2022-11-25T06:36:48;95222.88;;;4.74;100.00
2685;BME280;1352;48.446;9.156;2022-11-25T06:39:15;95223.31;;;4.68;100.00
2685;BME280;1352;48.446;9.156;2022-11-25T06:41:47;95223.59;;;4.64;100.00
2685;BME280;1352;48.446;9.156;2022-11-25T06:44:15;95220.91;;;4.53;100.00
2685;BME280;1352;48.446;9.156;2022-11-25T06:46:48;95222.69;;;4.52;100.00
2685;BME280;1352;48.446;9.156;2022-11-25T06:49:16;95227.72;;;4.41;100.00
2685;BME280;1352;48.446;9.156;2022-11-25T06:51:43;95232.56;;;4.33;100.00
2685;BME280;1352;48.446;9.156;2022-11-25T06:54:10;95230.69;;;4.35;100.00
2685;BME280;1352;48.446;9.156;2022-11-25T06:56:38;95230.56;;;4.24;100.00
2685;BME280;1352;48.446;9.156;2022-11-25T06:59:10;95222.63;;;4.27;100.00
2685;BME280;1352;48.446;9.156;2022-11-25T07:01:40;95225.13;;;4.41;100.00
2685;BME280;1352;48.446;9.156;2022-11-25T07:04:08;95236.81;;;4.46;100.00
2685;BME280;1352;48.446;9.156;2022-11-25T07:06:48;95243.13;;;4.55;100.00
2685;BME280;1352;48.446;9.156;2022-11-25T07:09:16;95239.22;;;4.62;100.00
2685;BME280;1352;48.446;9.156;2022-11-25T07:11:46;95252.63;;;4.55;100.00
2685;BME280;1352;48.446;9.156;2022-11-25T07:14:22;95254.91;;;4.59;100.00
2685;BME280;1352;48.446;9.156;2022-11-25T07:16:50;95256.69;;;4.71;100.00
2685;BME280;1352;48.446;9.156;2022-11-25T07:19:30;95246.56;;;4.68;100.00
2685;BME280;1352;48.446;9.156;2022-11-25T07:22:03;95239.22;;;4.75;100.00
2685;BME280;1352;48.446;9.156;2022-11-25T07:24:33;95243.34;;;4.77;100.00
2685;BME280;1352;48.446;9.156;2022-11-25T07:27:04;95235.19;;;4.83;100.00
2685;BME280;1352;48.446;9.156;2022-11-25T07:29:34;95249.66;;;4.86;100.00
2685;BME280;1352;48.446;9.156;2022-11-25T07:32:15;95254.19;;;4.82;100.00
2685;BME280;1352;48.446;9.156;2022-11-25T07:34:42;95258.44;;;4.83;100.00
2685;BME280;1352;48.446;9.156;2022-11-25T07:37:10;95269.09;;;4.92;100.00
2685;BME280;1352;48.446;9.156;2022-11-25T07:39:37;95272.41;;;5.06;100.00
2685;BME280;1352;48.446;9.156;2022-11-25T07:42:10;95271.06;;;5.13;100.00
2685;BME280;1352;48.446;9.156;2022-11-25T07:44:42;95281.69;;;5.21;100.00
2685;BME280;1352;48.446;9.156;2022-11-25T07:47:15;95274.16;;;5.31;100.00
2685;BME280;1352;48.446;9.156;2022-11-25T07:49:42;95282.72;;;5.44;100.00
2685;BME280;1352;48.446;9.156;2022-11-25T07:52:11;95276.41;;;5.48;100.00
2685;BME280;1352;48.446;9.156;2022-11-25T07:54:39;95284.56;;;5.55;100.00
2685;BME280;1352;48.446;9.156;2022-11-25T07:57:06;95281.34;;;5.64;100.00
2685;BME280;1352;48.446;9.156;2022-11-25T07:59:33;95281.44;;;5.75;100.00
2685;BME280;1352;48.446;9.156;2022-11-25T08:02:08;95280.16;;;5.81;100.00
2685;BME280;1352;48.446;9.156;2022-11-25T08:04:35;95278.81;;;5.88;100.00
2685;BME280;1352;48.446;9.156;2022-11-25T08:07:03;95287.31;;;5.90;100.00
2685;BME280;1352;48.446;9.156;2022-11-25T08:09:30;95279.81;;;5.85;100.00
2685;BME280;1352;48.446;9.156;2022-11-25T08:11:57;95284.19;;;5.85;100.00
2685;BME280;1352;48.446;9.156;2022-11-25T08:14:24;95294.34;;;5.88;100.00
2685;BME280;1352;48.446;9.156;2022-11-25T08:16:52;95295.19;;;5.88;100.00
2685;BME280;1352;48.446;9.156;2022-11-25T08:19:21;95299.31;;;5.91;100.00
2685;BME280;1352;48.446;9.156;2022-11-25T08:21:49;95289.25;;;5.99;100.00
2685;BME280;1352;48.446;9.156;2022-11-25T08:24:18;95292.78;;;5.98;100.00
2685;BME280;1352;48.446;9.156;2022-11-25T08:26:47;95292.63;;;6.12;100.00
2685;BME280;1352;48.446;9.156;2022-11-25T08:29:17;95297.38;;;6.18;100.00
2685;BME280;1352;48.446;9.156;2022-11-25T08:31:45;95296.56;;;6.05;100.00
2685;BME280;1352;48.446;9.156;2022-11-25T08:34:17;95293.31;;;6.14;100.00
2685;BME280;1352;48.446;9.156;2022-11-25T08:36:46;95291.31;;;6.30;100.00
2685;BME280;1352;48.446;9.156;2022-11-25T08:39:14;95294.53;;;6.45;100.00
2685;BME280;1352;48.446;9.156;2022-11-25T08:41:41;95293.97;;;6.53;100.00
2685;BME280;1352;48.446;9.156;2022-11-25T08:44:09;95298.00;;;6.57;100.00
2685;BME280;1352;48.446;9.156;2022-11-25T08:46:38;95296.31;;;6.68;100.00
2685;BME280;1352;48.446;9.156;2022-11-25T08:49:07;95291.38;;;6.53;100.00
2685;BME280;1352;48.446;9.156;2022-11-25T08:51:35;95294.38;;;6.59;100.00
2685;BME280;1352;48.446;9.156;2022-11-25T08:54:05;95292.53;;;6.72;100.00
2685;BME280;1352;48.446;9.156;2022-11-25T08:56:33;95303.94;;;6.70;100.00
2685;BME280;1352;48.446;9.156;2022-11-25T08:59:00;95294.81;;;6.88;100.00
2685;BME280;1352;48.446;9.156;2022-11-25T09:01:28;95298.16;;;6.66;100.00
2685;BME280;1352;48.446;9.156;2022-11-25T09:03:56;95310.03;;;6.58;100.00
2685;BME280;1352;48.446;9.156;2022-11-25T09:06:26;95314.03;;;6.51;100.00
2685;BME280;1352;48.446;9.156;2022-11-25T09:08:55;95317.47;;;6.62;100.00
2685;BME280;1352;48.446;9.156;2022-11-25T09:11:24;95316.63;;;6.62;100.00
2685;BME280;1352;48.446;9.156;2022-11-25T09:13:51;95319.63;;;6.68;100.00
2685;BME280;1352;48.446;9.156;2022-11-25T09:16:19;95321.53;;;6.78;100.00
2685;BME280;1352;48.446;9.156;2022-11-25T09:18:46;95319.94;;;6.88;100.00
2685;BME280;1352;48.446;9.156;2022-11-25T09:21:15;95327.72;;;6.88;100.00
2685;BME280;1352;48.446;9.156;2022-11-25T09:23:43;95326.72;;;6.78;100.00
2685;BME280;1352;48.446;9.156;2022-11-25T09:26:19;95330.16;;;6.89;100.00
2685;BME280;1352;48.446;9.156;2022-11-25T09:28:52;95331.09;;;6.77;100.00
2685;BME280;1352;48.446;9.156;2022-11-25T09:31:23;95335.56;;;6.75;100.00
2685;BME280;1352;48.446;9.156;2022-11-25T09:33:51;95338.25;;;6.73;100.00
2685;BME280;1352;48.446;9.156;2022-11-25T09:36:24;95331.03;;;7.01;100.00
2685;BME280;1352;48.446;9.156;2022-11-25T09:38:52;95331.16;;;7.10;100.00
2685;BME280;1352;48.446;9.156;2022-11-25T09:41:35;95330.16;;;7.24;100.00
2685;BME280;1352;48.446;9.156;2022-11-25T09:44:44;95322.63;;;7.43;100.00
2685;BME280;1352;48.446;9.156;2022-11-25T09:47:37;95326.31;;;7.63;100.00
2685;BME280;1352;48.446;9.156;2022-11-25T09:50:15;95332.91;;;7.90;100.00
2685;BME280;1352;48.446;9.156;2022-11-25T09:52:51;95327.72;;;8.01;100.00
2685;BME280;1352;48.446;9.156;2022-11-25T09:55:44;95340.66;;;8.12;100.00
2685;BME280;1352;48.446;9.156;2022-11-25T09:58:31;95327.44;;;8.37;100.00
2685;BME280;1352;48.446;9.156;2022-11-25T10:01:03;95335.88;;;8.50;100.00
2685;BME280;1352;48.446;9.156;2022-11-25T10:03:35;95330.13;;;8.47;100.00
2685;BME280;1352;48.446;9.156;2022-11-25T10:06:08;95330.94;;;8.47;100.00
2685;BME280;1352;48.446;9.156;2022-11-25T10:08:40;95336.31;;;8.67;100.00
2685;BME280;1352;48.446;9.156;2022-11-25T10:11:18;95334.19;;;8.92;100.00
2685;BME280;1352;48.446;9.156;2022-11-25T10:13:53;95336.81;;;8.92;100.00
2685;BME280;1352;48.446;9.156;2022-11-25T10:16:34;95331.88;;;9.10;100.00
2685;BME280;1352;48.446;9.156;2022-11-25T10:19:15;95324.19;;;9.29;100.00
2685;BME280;1352;48.446;9.156;2022-11-25T10:21:46;95318.13;;;9.50;100.00
2685;BME280;1352;48.446;9.156;2022-11-25T10:24:15;95323.75;;;9.76;100.00
2685;BME280;1352;48.446;9.156;2022-11-25T10:26:44;95320.41;;;10.04;100.00
2685;BME280;1352;48.446;9.156;2022-11-25T10:29:25;95317.59;;;10.17;100.00
2685;BME280;1352;48.446;9.156;2022-11-25T10:32:17;95318.50;;;10.36;99.46
2685;BME280;1352;48.446;9.156;2022-11-25T10:34:52;95324.53;;;10.37;94.27
2685;BME280;1352;48.446;9.156;2022-11-25T10:37:28;95320.97;;;10.38;96.24
2685;BME280;1352;48.446;9.156;2022-11-25T10:39:57;95324.94;;;10.42;95.77
2685;BME280;1352;48.446;9.156;2022-11-25T10:42:25;95323.56;;;10.48;97.11
2685;BME280;1352;48.446;9.156;2022-11-25T10:44:54;95326.47;;;10.54;99.35
2685;BME280;1352;48.446;9.156;2022-11-25T10:47:33;95331.41;;;10.38;98.11
2685;BME280;1352;48.446;9.156;2022-11-25T10:50:14;95333.66;;;9.91;100.00
2685;BME280;1352;48.446;9.156;2022-11-25T10:52:49;95331.56;;;9.76;100.00
2685;BME280;1352;48.446;9.156;2022-11-25T10:55:20;95341.63;;;9.59;100.00
2685;BME280;1352;48.446;9.156;2022-11-25T10:57:54;95341.66;;;9.39;100.00
2685;BME280;1352;48.446;9.156;2022-11-25T11:00:31;95345.59;;;9.33;100.00
2685;BME280;1352;48.446;9.156;2022-11-25T11:03:13;95343.59;;;9.25;100.00
2685;BME280;1352;48.446;9.156;2022-11-25T11:05:46;95350.97;;;9.41;100.00
2685;BME280;1352;48.446;9.156;2022-11-25T11:08:20;95353.78;;;9.28;100.00
2685;BME280;1352;48.446;9.156;2022-11-25T11:11:08;95355.19;;;9.32;100.00
2685;BME280;1352;48.446;9.156;2022-11-25T11:13:36;95362.28;;;9.30;100.00
2685;BME280;1352;48.446;9.156;2022-11-25T11:16:13;95365.97;;;9.28;100.00
2685;BME280;1352;48.446;9.156;2022-11-25T11:18:48;95361.22;;;9.33;100.00
2685;BME280;1352;48.446;9.156;2022-11-25T11:21:22;95360.88;;;9.26;100.00
2685;BME280;1352;48.446;9.156;2022-11-25T11:23:53;95360.44;;;9.42;100.00
2685;BME280;1352;48.446;9.156;2022-11-25T11:26:23;95368.19;;;9.32;100.00
2685;BME280;1352;48.446;9.156;2022-11-25T11:29:02;95379.81;;;8.76;100.00
2685;BME280;1352;48.446;9.156;2022-11-25T11:31:44;95381.13;;;8.59;100.00
2685;BME280;1352;48.446;9.156;2022-11-25T11:34:42;95387.47;;;8.77;100.00
2685;BME280;1352;48.446;9.156;2022-11-25T11:37:30;95388.34;;;8.55;100.00
2685;BME280;1352;48.446;9.156;2022-11-25T11:40:26;95390.88;;;8.35;100.00
2685;BME280;1352;48.446;9.156;2022-11-25T11:49:13;95390.66;;;8.70;100.00
2685;BME280;1352;48.446;9.156;2022-11-25T11:51:50;95394.69;;;8.74;100.00
2685;BME280;1352;48.446;9.156;2022-11-25T11:54:25;95398.53;;;8.90;100.00
2685;BME280;1352;48.446;9.156;2022-11-25T11:57:01;95387.50;;;8.98;100.00
2685;BME280;1352;48.446;9.156;2022-11-25T11:59:45;95401.44;;;9.08;100.00
2685;BME280;1352;48.446;9.156;2022-11-25T12:02:30;95402.25;;;9.09;100.00
2685;BME280;1352;48.446;9.156;2022-11-25T12:05:11;95397.38;;;9.15;100.00
2685;BME280;1352;48.446;9.156;2022-11-25T12:07:47;95400.22;;;9.12;100.00
2685;BME280;1352;48.446;9.156;2022-11-25T12:10:24;95409.44;;;9.16;100.00
2685;BME280;1352;48.446;9.156;2022-11-25T12:12:58;95414.63;;;9.16;100.00
2685;BME280;1352;48.446;9.156;2022-11-25T12:15:36;95416.41;;;9.16;100.00
2685;BME280;1352;48.446;9.156;2022-11-25T12:18:13;95411.94;;;9.07;100.00
2685;BME280;1352;48.446;9.156;2022-11-25T12:20:49;95416.75;;;9.22;100.00
2685;BME280;1352;48.446;9.156;2022-11-25T12:23:24;95423.66;;;9.12;100.00
2685;BME280;1352;48.446;9.156;2022-11-25T12:25:57;95428.47;;;9.17;100.00
2685;BME280;1352;48.446;9.156;2022-11-25T12:28:31;95419.25;;;9.24;100.00
2685;BME280;1352;48.446;9.156;2022-11-25T12:31:07;95421.63;;;9.16;100.00
2685;BME280;1352;48.446;9.156;2022-11-25T12:33:45;95423.28;;;9.17;100.00
2685;BME280;1352;48.446;9.156;2022-11-25T12:36:19;95419.78;;;9.27;100.00
2685;BME280;1352;48.446;9.156;2022-11-25T12:38:54;95425.63;;;9.20;100.00
2685;BME280;1352;48.446;9.156;2022-11-25T12:41:26;95426.47;;;9.20;100.00
2685;BME280;1352;48.446;9.156;2022-11-25T12:44:02;95429.06;;;9.20;100.00
2685;BME280;1352;48.446;9.156;2022-11-25T12:46:34;95429.66;;;9.24;100.00
2685;BME280;1352;48.446;9.156;2022-11-25T12:49:04;95429.66;;;9.24;100.00
2685;BME280;1352;48.446;9.156;2022-11-25T12:51:50;95434.59;;;9.27;100.00
2685;BME280;1352;48.446;9.156;2022-11-25T12:54:40;95437.69;;;9.21;100.00
2685;BME280;1352;48.446;9.156;2022-11-25T12:57:24;95434.50;;;9.17;100.00
2685;BME280;1352;48.446;9.156;2022-11-25T13:00:11;95449.41;;;9.15;100.00
2685;BME280;1352;48.446;9.156;2022-11-25T13:03:10;95441.59;;;9.15;100.00
2685;BME280;1352;48.446;9.156;2022-11-25T13:08:55;95445.88;;;9.16;100.00
2685;BME280;1352;48.446;9.156;2022-11-25T13:11:47;95455.44;;;9.16;100.00
2685;BME280;1352;48.446;9.156;2022-11-25T13:14:25;95461.00;;;9.22;100.00
2685;BME280;1352;48.446;9.156;2022-11-25T13:16:55;95469.88;;;9.20;100.00
2685;BME280;1352;48.446;9.156;2022-11-25T13:19:24;95461.47;;;9.16;100.00
2685;BME280;1352;48.446;9.156;2022-11-25T13:21:59;95467.63;;;9.15;100.00
2685;BME280;1352;48.446;9.156;2022-11-25T13:24:30;95470.47;;;9.23;100.00
2685;BME280;1352;48.446;9.156;2022-11-25T13:27:00;95474.03;;;9.22;100.00
2685;BME280;1352;48.446;9.156;2022-11-25T13:29:59;95484.56;;;9.21;100.00
2685;BME280;1352;48.446;9.156;2022-11-25T13:32:39;95494.47;;;9.27;100.00
2685;BME280;1352;48.446;9.156;2022-11-25T13:37:57;95491.84;;;9.27;100.00
2685;BME280;1352;48.446;9.156;2022-11-25T13:40:38;95492.59;;;9.18;100.00
2685;BME280;1352;48.446;9.156;2022-11-25T13:43:21;95494.50;;;9.16;100.00
2685;BME280;1352;48.446;9.156;2022-11-25T13:45:49;95502.09;;;9.08;100.00
2685;BME280;1352;48.446;9.156;2022-11-25T13:48:19;95506.81;;;9.14;100.00
2685;BME280;1352;48.446;9.156;2022-11-25T13:50:48;95516.84;;;9.18;100.00
2685;BME280;1352;48.446;9.156;2022-11-25T13:53:22;95509.53;;;9.12;100.00
2685;BME280;1352;48.446;9.156;2022-11-25T13:55:51;95514.75;;;9.12;100.00
2685;BME280;1352;48.446;9.156;2022-11-25T13:58:24;95509.91;;;9.08;100.00
2685;BME280;1352;48.446;9.156;2022-11-25T14:01:20;95520.56;;;9.05;100.00
2685;BME280;1352;48.446;9.156;2022-11-25T14:03:56;95524.44;;;9.10;100.00
2685;BME280;1352;48.446;9.156;2022-11-25T14:09:30;95532.50;;;9.07;100.00
2685;BME280;1352;48.446;9.156;2022-11-25T14:12:11;95535.47;;;9.14;100.00
2685;BME280;1352;48.446;9.156;2022-11-25T14:15:00;95538.16;;;9.12;100.00
2685;BME280;1352;48.446;9.156;2022-11-25T14:20:38;95543.72;;;9.19;100.00